sensor_id;sensor_type;location;lat;lon;timestamp;pressure;altitude;pressure_sealevel;temperature;humidity
26915;BME280;14480;52.608;13.416;2023-01-25T07:14:03;140622.88;;;-13.83;100.00
26915;BME280;14480;52.608;13.416;2023-01-25T07:19:10;140626.56;;;-13.82;100.00
26915;BME280;14480;52.608;13.416;2023-01-25T07:24:17;140625.34;;;-13.82;100.00
26915;BME280;14480;52.608;13.416;2023-01-25T07:29:22;140648.69;;;-13.73;100.00
26915;BME280;14480;52.608;13.416;2023-01-25T07:34:25;140645.03;;;-13.74;100.00
26915;BME280;14480;52.608;13.416;2023-01-25T07:39:29;140640.13;;;-13.76;100.00
26915;BME280;14480;52.608;13.416;2023-01-25T07:44:34;140638.88;;;-13.77;100.00
26915;BME280;14480;52.608;13.416;2023-01-25T07:49:46;140649.94;;;-13.72;100.00
26915;BME280;14480;52.608;13.416;2023-01-25T07:54:50;140656.06;;;-13.70;100.00
26915;BME280;14480;52.608;13.416;2023-01-25T07:59:54;140659.75;;;-13.68;100.00
26915;BME280;14480;52.608;13.416;2023-01-25T08:04:58;140665.91;;;-13.66;100.00
26915;BME280;14480;52.608;13.416;2023-01-25T08:10:01;140672.06;;;-13.63;100.00
26915;BME280;14480;52.608;13.416;2023-01-25T08:15:07;140691.69;;;-13.55;100.00
26915;BME280;14480;52.608;13.416;2023-01-25T08:20:11;140712.59;;;-13.46;100.00
26915;BME280;14480;52.608;13.416;2023-01-25T08:25:17;140740.84;;;-13.35;100.00
26915;BME280;14480;52.608;13.416;2023-01-25T08:30:22;140764.22;;;-13.25;100.00
26915;BME280;14480;52.608;13.416;2023-01-25T08:35:25;140739.63;;;-13.35;100.00
26915;BME280;14480;52.608;13.416;2023-01-25T08:40:29;140763.00;;;-13.26;100.00
26915;BME280;14480;52.608;13.416;2023-01-25T08:45:34;140737.19;;;-13.36;100.00
26915;BME280;14480;52.608;13.416;2023-01-25T08:50:38;140756.84;;;-13.28;100.00
26915;BME280;14480;52.608;13.416;2023-01-25T08:55:41;140723.69;;;-13.42;100.00
26915;BME280;14480;52.608;13.416;2023-01-25T09:00:49;140690.47;;;-13.56;100.00
26915;BME280;14480;52.608;13.416;2023-01-25T09:05:55;140679.41;;;-13.60;100.00
26915;BME280;14480;52.608;13.416;2023-01-25T09:11:02;140717.50;;;-13.44;100.00
26915;BME280;14480;52.608;13.416;2023-01-25T09:16:08;140726.13;;;-13.41;100.00
26915;BME280;14480;52.608;13.416;2023-01-25T09:21:15;140711.34;;;-13.47;100.00
26915;BME280;14480;52.608;13.416;2023-01-25T09:26:19;140676.97;;;-13.61;100.00
26915;BME280;14480;52.608;13.416;2023-01-25T09:31:23;140686.78;;;-13.57;100.00
26915;BME280;14480;52.608;13.416;2023-01-25T09:36:45;140674.50;;;-13.62;100.00
26915;BME280;14480;52.608;13.416;2023-01-25T09:47:25;140692.91;;;-13.55;100.00
26915;BME280;14480;52.608;13.416;2023-01-25T09:57:56;140664.66;;;-13.66;100.00
26915;BME280;14480;52.608;13.416;2023-01-25T10:03:04;140667.16;;;-13.65;100.00
26915;BME280;14480;52.608;13.416;2023-01-25T10:08:15;140680.63;;;-13.60;100.00
26915;BME280;14480;52.608;13.416;2023-01-25T10:13:22;140694.19;;;-13.54;100.00
26915;BME280;14480;52.608;13.416;2023-01-25T10:18:28;140689.22;;;-13.56;100.00
26915;BME280;14480;52.608;13.416;2023-01-25T10:23:38;140675.72;;;-13.62;100.00
26915;BME280;14480;52.608;13.416;2023-01-25T10:28:48;140660.97;;;-13.68;100.00
26915;BME280;14480;52.608;13.416;2023-01-25T10:33:56;140627.81;;;-13.81;100.00
26915;BME280;14480;52.608;13.416;2023-01-25T10:39:01;140656.06;;;-13.70;100.00
26915;BME280;14480;52.608;13.416;2023-01-25T10:44:09;140633.94;;;-13.79;100.00
26915;BME280;14480;52.608;13.416;2023-01-25T10:49:30;140679.41;;;-13.60;100.00
26915;BME280;14480;52.608;13.416;2023-01-25T10:54:38;140690.47;;;-13.56;100.00
26915;BME280;14480;52.608;13.416;2023-01-25T10:59:42;140697.88;;;-13.52;100.00
26915;BME280;14480;52.608;13.416;2023-01-25T11:04:50;140719.94;;;-13.43;100.00
26915;BME280;14480;52.608;13.416;2023-01-25T11:09:54;140712.59;;;-13.46;100.00
26915;BME280;14480;52.608;13.416;2023-01-25T11:14:57;140722.44;;;-13.42;100.00
26915;BME280;14480;52.608;13.416;2023-01-25T11:20:22;140731.03;;;-13.39;100.00
26915;BME280;14480;52.608;13.416;2023-01-25T11:25:28;140726.13;;;-13.41;100.00
26915;BME280;14480;52.608;13.416;2023-01-25T11:30:32;140737.19;;;-13.36;100.00
26915;BME280;14480;52.608;13.416;2023-01-25T11:35:38;140723.69;;;-13.42;100.00
26915;BME280;14480;52.608;13.416;2023-01-25T11:40:46;140688.00;;;-13.57;100.00
26915;BME280;14480;52.608;13.416;2023-01-25T11:46:04;140696.63;;;-13.53;100.00
26915;BME280;14480;52.608;13.416;2023-01-25T11:51:19;140699.09;;;-13.52;100.00
26915;BME280;14480;52.608;13.416;2023-01-25T11:56:29;140631.47;;;-13.80;100.00
26915;BME280;14480;52.608;13.416;2023-01-25T12:01:35;140632.72;;;-13.79;100.00
26915;BME280;14480;52.608;13.416;2023-01-25T12:06:44;140641.34;;;-13.76;100.00
26915;BME280;14480;52.608;13.416;2023-01-25T12:11:53;140648.69;;;-13.73;100.00
26915;BME280;14480;52.608;13.416;2023-01-25T12:17:02;140640.13;;;-13.76;100.00
26915;BME280;14480;52.608;13.416;2023-01-25T12:22:21;140643.78;;;-13.75;100.00
26915;BME280;14480;52.608;13.416;2023-01-25T12:27:34;140632.72;;;-13.79;100.00
26915;BME280;14480;52.608;13.416;2023-01-25T12:32:43;140599.53;;;-13.93;100.00
26915;BME280;14480;52.608;13.416;2023-01-25T12:37:49;140625.34;;;-13.82;100.00
26915;BME280;14480;52.608;13.416;2023-01-25T12:42:57;140597.09;;;-13.94;100.00
26915;BME280;14480;52.608;13.416;2023-01-25T12:48:02;140626.56;;;-13.82;100.00
26915;BME280;14480;52.608;13.416;2023-01-25T12:53:16;140606.91;;;-13.90;100.00
26915;BME280;14480;52.608;13.416;2023-01-25T12:58:23;140574.97;;;-14.03;100.00
26915;BME280;14480;52.608;13.416;2023-01-25T13:03:46;140547.94;;;-14.15;100.00
26915;BME280;14480;52.608;13.416;2023-01-25T13:08:56;140546.72;;;-14.15;100.00
26915;BME280;14480;52.608;13.416;2023-01-25T13:14:25;140540.59;;;-14.18;100.00
26915;BME280;14480;52.608;13.416;2023-01-25T13:31:00;140543.03;;;-14.17;100.00
26915;BME280;14480;52.608;13.416;2023-01-25T13:41:26;140538.13;;;-14.19;100.00
26915;BME280;14480;52.608;13.416;2023-01-25T13:46:31;140549.19;;;-14.14;100.00
26915;BME280;14480;52.608;13.416;2023-01-25T13:51:35;140561.47;;;-14.09;100.00
26915;BME280;14480;52.608;13.416;2023-01-25T13:56:40;140562.72;;;-14.08;100.00
26915;BME280;14480;52.608;13.416;2023-01-25T14:01:45;140567.63;;;-14.06;100.00
26915;BME280;14480;52.608;13.416;2023-01-25T14:06:53;140535.69;;;-14.20;100.00
26915;BME280;14480;52.608;13.416;2023-01-25T14:12:01;140520.94;;;-14.26;100.00
26915;BME280;14480;52.608;13.416;2023-01-25T14:17:14;140517.25;;;-14.27;100.00
26915;BME280;14480;52.608;13.416;2023-01-25T14:22:22;140519.69;;;-14.26;100.00
26915;BME280;14480;52.608;13.416;2023-01-25T14:27:27;140529.56;;;-14.22;100.00
26915;BME280;14480;52.608;13.416;2023-01-25T14:32:32;140547.94;;;-14.15;100.00
26915;BME280;14480;52.608;13.416;2023-01-25T14:37:40;140550.41;;;-14.14;100.00
26915;BME280;14480;52.608;13.416;2023-01-25T14:42:47;140528.31;;;-14.23;100.00
26915;BME280;14480;52.608;13.416;2023-01-25T14:47:52;140530.78;;;-14.22;100.00
26915;BME280;14480;52.608;13.416;2023-01-25T14:53:05;140520.94;;;-14.26;100.00
26915;BME280;14480;52.608;13.416;2023-01-25T14:58:10;140513.56;;;-14.29;100.00
26915;BME280;14480;52.608;13.416;2023-01-25T15:03:17;140496.38;;;-14.36;100.00
26915;BME280;14480;52.608;13.416;2023-01-25T15:08:26;140500.09;;;-14.34;100.00
26915;BME280;14480;52.608;13.416;2023-01-25T15:13:34;140486.56;;;-14.40;100.00
26915;BME280;14480;52.608;13.416;2023-01-25T15:18:45;140482.88;;;-14.41;100.00
26915;BME280;14480;52.608;13.416;2023-01-25T15:23:49;140463.25;;;-14.50;100.00
26915;BME280;14480;52.608;13.416;2023-01-25T15:28:53;140454.69;;;-14.53;100.00
26915;BME280;14480;52.608;13.416;2023-01-25T15:34:00;140453.47;;;-14.54;100.00
26915;BME280;14480;52.608;13.416;2023-01-25T15:39:04;140447.34;;;-14.56;100.00
26915;BME280;14480;52.608;13.416;2023-01-25T15:44:08;140427.66;;;-14.64;100.00
26915;BME280;14480;52.608;13.416;2023-01-25T15:49:15;140433.81;;;-14.62;100.00
26915;BME280;14480;52.608;13.416;2023-01-25T15:54:19;140449.78;;;-14.55;100.00
26915;BME280;14480;52.608;13.416;2023-01-25T15:59:23;140415.41;;;-14.69;100.00
26915;BME280;14480;52.608;13.416;2023-01-25T16:04:29;140379.78;;;-14.84;100.00
26915;BME280;14480;52.608;13.416;2023-01-25T16:09:33;140388.41;;;-14.81;100.00
26915;BME280;14480;52.608;13.416;2023-01-25T16:14:36;140415.41;;;-14.69;100.00
26915;BME280;14480;52.608;13.416;2023-01-25T16:19:41;140384.69;;;-14.82;100.00
26915;BME280;14480;52.608;13.416;2023-01-25T16:24:47;140390.88;;;-14.80;100.00
26915;BME280;14480;52.608;13.416;2023-01-25T16:29:50;140406.78;;;-14.73;100.00
26915;BME280;14480;52.608;13.416;2023-01-25T16:34:55;140411.69;;;-14.71;100.00
26915;BME280;14480;52.608;13.416;2023-01-25T16:40:01;140412.91;;;-14.70;100.00
26915;BME280;14480;52.608;13.416;2023-01-25T16:45:05;140421.53;;;-14.67;100.00
26915;BME280;14480;52.608;13.416;2023-01-25T16:50:12;140417.88;;;-14.68;100.00
26915;BME280;14480;52.608;13.416;2023-01-25T16:55:16;140415.41;;;-14.69;100.00
26915;BME280;14480;52.608;13.416;2023-01-25T17:00:20;140399.44;;;-14.76;100.00
26915;BME280;14480;52.608;13.416;2023-01-25T17:11:15;140370.00;;;-14.88;100.00
26915;BME280;14480;52.608;13.416;2023-01-25T17:16:49;140377.34;;;-14.85;100.00
26915;BME280;14480;52.608;13.416;2023-01-25T17:21:57;140377.34;;;-14.85;100.00
26915;BME280;14480;52.608;13.416;2023-01-25T17:27:02;140378.56;;;-14.85;100.00
26915;BME280;14480;52.608;13.416;2023-01-25T17:32:09;140384.69;;;-14.82;100.00
26915;BME280;14480;52.608;13.416;2023-01-25T17:37:12;140382.25;;;-14.83;100.00
26915;BME280;14480;52.608;13.416;2023-01-25T17:42:17;140401.88;;;-14.75;100.00
26915;BME280;14480;52.608;13.416;2023-01-25T17:47:23;140393.31;;;-14.79;100.00
26915;BME280;14480;52.608;13.416;2023-01-25T17:52:26;140399.44;;;-14.76;100.00
26915;BME280;14480;52.608;13.416;2023-01-25T17:57:31;140394.53;;;-14.78;100.00
26915;BME280;14480;52.608;13.416;2023-01-25T18:02:36;140381.00;;;-14.84;100.00
26915;BME280;14480;52.608;13.416;2023-01-25T18:07:41;140365.09;;;-14.90;100.00
26915;BME280;14480;52.608;13.416;2023-01-25T18:12:47;140331.97;;;-15.04;100.00
26915;BME280;14480;52.608;13.416;2023-01-25T18:18:05;140317.22;;;-15.10;100.00
26915;BME280;14480;52.608;13.416;2023-01-25T18:23:09;140324.56;;;-15.07;100.00
26915;BME280;14480;52.608;13.416;2023-01-25T18:28:16;140339.31;;;-15.01;100.00
26915;BME280;14480;52.608;13.416;2023-01-25T18:33:22;140346.66;;;-14.98;100.00
26915;BME280;14480;52.608;13.416;2023-01-25T18:38:26;140362.63;;;-14.91;100.00
26915;BME280;14480;52.608;13.416;2023-01-25T18:43:36;140366.31;;;-14.90;100.00
26915;BME280;14480;52.608;13.416;2023-01-25T18:48:41;140339.31;;;-15.01;100.00
26915;BME280;14480;52.608;13.416;2023-01-25T18:53:53;140349.09;;;-14.97;100.00
26915;BME280;14480;52.608;13.416;2023-01-25T18:59:13;140342.97;;;-14.99;100.00
26915;BME280;14480;52.608;13.416;2023-01-25T19:04:17;140317.22;;;-15.10;100.00
26915;BME280;14480;52.608;13.416;2023-01-25T19:09:22;140307.41;;;-15.14;100.00
26915;BME280;14480;52.608;13.416;2023-01-25T19:14:32;140323.34;;;-15.08;100.00
26915;BME280;14480;52.608;13.416;2023-01-25T19:19:36;140295.13;;;-15.19;100.00
26915;BME280;14480;52.608;13.416;2023-01-25T19:24:42;140304.97;;;-15.15;100.00
26915;BME280;14480;52.608;13.416;2023-01-25T19:30:06;140308.63;;;-15.14;100.00
26915;BME280;14480;52.608;13.416;2023-01-25T19:35:39;140320.88;;;-15.09;100.00
26915;BME280;14480;52.608;13.416;2023-01-25T19:40:47;140307.41;;;-15.14;100.00
26915;BME280;14480;52.608;13.416;2023-01-25T19:46:08;140308.63;;;-15.14;100.00
26915;BME280;14480;52.608;13.416;2023-01-25T19:51:16;140312.31;;;-15.12;100.00
26915;BME280;14480;52.608;13.416;2023-01-25T19:56:45;140316.00;;;-15.11;100.00
26915;BME280;14480;52.608;13.416;2023-01-25T20:01:51;140339.31;;;-15.01;100.00
26915;BME280;14480;52.608;13.416;2023-01-25T20:06:54;140285.31;;;-15.23;100.00
26915;BME280;14480;52.608;13.416;2023-01-25T20:11:58;140297.56;;;-15.18;100.00
26915;BME280;14480;52.608;13.416;2023-01-25T20:17:06;140300.03;;;-15.17;100.00
26915;BME280;14480;52.608;13.416;2023-01-25T20:22:12;140307.41;;;-15.14;100.00
26915;BME280;14480;52.608;13.416;2023-01-25T20:27:16;140306.19;;;-15.15;100.00
26915;BME280;14480;52.608;13.416;2023-01-25T20:32:23;140297.56;;;-15.18;100.00
26915;BME280;14480;52.608;13.416;2023-01-25T20:37:34;140297.56;;;-15.18;100.00
26915;BME280;14480;52.608;13.416;2023-01-25T20:42:38;140308.63;;;-15.14;100.00
26915;BME280;14480;52.608;13.416;2023-01-25T20:47:45;140325.78;;;-15.07;100.00
26915;BME280;14480;52.608;13.416;2023-01-25T20:52:49;140327.00;;;-15.06;100.00
26915;BME280;14480;52.608;13.416;2023-01-25T20:57:53;140304.97;;;-15.15;100.00
26915;BME280;14480;52.608;13.416;2023-01-25T21:02:58;140322.13;;;-15.08;100.00
26915;BME280;14480;52.608;13.416;2023-01-25T21:08:02;140320.88;;;-15.09;100.00
26915;BME280;14480;52.608;13.416;2023-01-25T21:13:05;140322.13;;;-15.08;100.00
26915;BME280;14480;52.608;13.416;2023-01-25T21:18:10;140300.03;;;-15.17;100.00
26915;BME280;14480;52.608;13.416;2023-01-25T21:23:14;140259.56;;;-15.34;100.00
26915;BME280;14480;52.608;13.416;2023-01-25T21:28:17;140277.97;;;-15.26;100.00
26915;BME280;14480;52.608;13.416;2023-01-25T21:33:23;140266.91;;;-15.31;100.00
26915;BME280;14480;52.608;13.416;2023-01-25T21:38:26;140255.88;;;-15.36;100.00
26915;BME280;14480;52.608;13.416;2023-01-25T21:43:30;140255.88;;;-15.36;100.00
26915;BME280;14480;52.608;13.416;2023-01-25T21:49:00;140274.25;;;-15.28;100.00
26915;BME280;14480;52.608;13.416;2023-01-25T21:54:24;140217.81;;;-15.51;100.00
26915;BME280;14480;52.608;13.416;2023-01-25T21:59:27;140247.31;;;-15.39;100.00
26915;BME280;14480;52.608;13.416;2023-01-25T22:04:33;140257.09;;;-15.35;100.00
26915;BME280;14480;52.608;13.416;2023-01-25T22:09:37;140274.25;;;-15.28;100.00
26915;BME280;14480;52.608;13.416;2023-01-25T22:14:41;140284.09;;;-15.24;100.00
26915;BME280;14480;52.608;13.416;2023-01-25T22:19:46;140276.75;;;-15.27;100.00
26915;BME280;14480;52.608;13.416;2023-01-25T22:24:50;140266.91;;;-15.31;100.00
26915;BME280;14480;52.608;13.416;2023-01-25T22:29:53;140284.09;;;-15.24;100.00
26915;BME280;14480;52.608;13.416;2023-01-25T22:34:58;140302.47;;;-15.16;100.00
26915;BME280;14480;52.608;13.416;2023-01-25T22:40:03;140312.31;;;-15.12;100.00
26915;BME280;14480;52.608;13.416;2023-01-25T22:45:07;140309.88;;;-15.13;100.00
26915;BME280;14480;52.608;13.416;2023-01-25T22:50:12;140300.03;;;-15.17;100.00
26915;BME280;14480;52.608;13.416;2023-01-25T22:55:18;140298.78;;;-15.18;100.00
26915;BME280;14480;52.608;13.416;2023-01-25T23:00:21;140292.66;;;-15.20;100.00
26915;BME280;14480;52.608;13.416;2023-01-25T23:05:30;140282.88;;;-15.24;100.00
26915;BME280;14480;52.608;13.416;2023-01-25T23:10:34;140290.22;;;-15.21;100.00
